<?xml version='1.0' encoding='UTF-8'?>
<gpx version="1.1" creator="https://www.komoot.de" xmlns="http://www.topografix.com/GPX/1/1" xmlns:xsi="http://www.w3.org/2001/XMLSchema-instance" xsi:schemaLocation="http://www.topografix.com/GPX/1/1 http://www.topografix.com/GPX/1/1/gpx.xsd">
  <metadata>
    <name>5km_version_10_08_2026</name>
    <author>
      <link href="https://www.komoot.de">
        <text>komoot</text>
        <type>text/html</type>
      </link>
    </author>
  </metadata>
  <trk>
    <name>5km_version_10_08_2026</name>
    <type>jogging</type>
    <trkseg>
      <trkpt lat="50.657719" lon="5.569167">
        <ele>180.192995</ele>
        <time>2026-08-10T19:51:17.929Z</time>
      </trkpt>
      <trkpt lat="50.657849" lon="5.568983">
        <ele>180.192995</ele>
        <time>2026-08-10T19:51:25.490Z</time>
      </trkpt>
      <trkpt lat="50.659060" lon="5.567285">
        <ele>181.036603</ele>
        <time>2026-08-10T19:52:37.084Z</time>
      </trkpt>
      <trkpt lat="50.659181" lon="5.567084">
        <ele>181.202122</ele>
        <time>2026-08-10T19:52:44.596Z</time>
      </trkpt>
      <trkpt lat="50.659351" lon="5.566851">
        <ele>181.414254</ele>
        <time>2026-08-10T19:52:54.125Z</time>
      </trkpt>
      <trkpt lat="50.659371" lon="5.566682">
        <ele>181.516913</ele>
        <time>2026-08-10T19:52:58.651Z</time>
      </trkpt>
      <trkpt lat="50.658901" lon="5.566131">
        <ele>181.550317</ele>
        <time>2026-08-10T19:53:22.387Z</time>
      </trkpt>
      <trkpt lat="50.658901" lon="5.565990">
        <ele>181.393829</ele>
        <time>2026-08-10T19:53:25.960Z</time>
      </trkpt>
      <trkpt lat="50.658836" lon="5.565903">
        <ele>181.244589</ele>
        <time>2026-08-10T19:53:29.355Z</time>
      </trkpt>
      <trkpt lat="50.658805" lon="5.565750">
        <ele>181.066320</ele>
        <time>2026-08-10T19:53:33.399Z</time>
      </trkpt>
      <trkpt lat="50.658782" lon="5.565635">
        <ele>180.932487</ele>
        <time>2026-08-10T19:53:36.415Z</time>
      </trkpt>
      <trkpt lat="50.658752" lon="5.565601">
        <ele>180.867815</ele>
        <time>2026-08-10T19:53:37.867Z</time>
      </trkpt>
      <trkpt lat="50.658627" lon="5.565332">
        <ele>180.497650</ele>
        <time>2026-08-10T19:53:46.121Z</time>
      </trkpt>
      <trkpt lat="50.658398" lon="5.564920">
        <ele>179.889524</ele>
        <time>2026-08-10T19:53:59.593Z</time>
      </trkpt>
      <trkpt lat="50.658276" lon="5.564764">
        <ele>179.614576</ele>
        <time>2026-08-10T19:54:05.723Z</time>
      </trkpt>
      <trkpt lat="50.658092" lon="5.564597">
        <ele>179.242928</ele>
        <time>2026-08-10T19:54:13.955Z</time>
      </trkpt>
      <trkpt lat="50.657760" lon="5.564303">
        <ele>178.578303</ele>
        <time>2026-08-10T19:54:28.696Z</time>
      </trkpt>
      <trkpt lat="50.656871" lon="5.563528">
        <ele>176.821346</ele>
        <time>2026-08-10T19:55:08.514Z</time>
      </trkpt>
      <trkpt lat="50.656097" lon="5.562846">
        <ele>175.428915</ele>
        <time>2026-08-10T19:55:43.769Z</time>
      </trkpt>
      <trkpt lat="50.655926" lon="5.562772">
        <ele>175.249753</ele>
        <time>2026-08-10T19:55:50.867Z</time>
      </trkpt>
      <trkpt lat="50.655676" lon="5.562719">
        <ele>174.994883</ele>
        <time>2026-08-10T19:56:00.944Z</time>
      </trkpt>
      <trkpt lat="50.655681" lon="5.562640">
        <ele>174.944027</ele>
        <time>2026-08-10T19:56:02.995Z</time>
      </trkpt>
      <trkpt lat="50.655676" lon="5.562719">
        <ele>174.893170</ele>
        <time>2026-08-10T19:56:04.961Z</time>
      </trkpt>
      <trkpt lat="50.655625" lon="5.562711">
        <ele>174.841386</ele>
        <time>2026-08-10T19:56:06.977Z</time>
      </trkpt>
      <trkpt lat="50.654735" lon="5.562548">
        <ele>173.936094</ele>
        <time>2026-08-10T19:56:42.697Z</time>
      </trkpt>
      <trkpt lat="50.654182" lon="5.562447">
        <ele>174.290805</ele>
        <time>2026-08-10T19:57:05.496Z</time>
      </trkpt>
      <trkpt lat="50.653901" lon="5.562396">
        <ele>174.605980</ele>
        <time>2026-08-10T19:57:17.359Z</time>
      </trkpt>
      <trkpt lat="50.653893" lon="5.562288">
        <ele>174.682796</ele>
        <time>2026-08-10T19:57:20.314Z</time>
      </trkpt>
      <trkpt lat="50.653859" lon="5.562232">
        <ele>174.737571</ele>
        <time>2026-08-10T19:57:22.394Z</time>
      </trkpt>
      <trkpt lat="50.653906" lon="5.562170">
        <ele>174.805843</ele>
        <time>2026-08-10T19:57:24.998Z</time>
      </trkpt>
      <trkpt lat="50.653928" lon="5.562141">
        <ele>174.837791</ele>
        <time>2026-08-10T19:57:26.227Z</time>
      </trkpt>
      <trkpt lat="50.654088" lon="5.562049">
        <ele>175.027551</ele>
        <time>2026-08-10T19:57:33.604Z</time>
      </trkpt>
      <trkpt lat="50.654686" lon="5.561970">
        <ele>175.696216</ele>
        <time>2026-08-10T19:58:00.169Z</time>
      </trkpt>
      <trkpt lat="50.654757" lon="5.561970">
        <ele>175.775329</ele>
        <time>2026-08-10T19:58:03.398Z</time>
      </trkpt>
      <trkpt lat="50.654782" lon="5.561969">
        <ele>175.803194</ele>
        <time>2026-08-10T19:58:04.502Z</time>
      </trkpt>
      <trkpt lat="50.655734" lon="5.561902">
        <ele>178.050857</ele>
        <time>2026-08-10T19:58:48.406Z</time>
      </trkpt>
      <trkpt lat="50.656099" lon="5.561887">
        <ele>178.916706</ele>
        <time>2026-08-10T19:59:05.113Z</time>
      </trkpt>
      <trkpt lat="50.656313" lon="5.561868">
        <ele>179.424986</ele>
        <time>2026-08-10T19:59:14.871Z</time>
      </trkpt>
      <trkpt lat="50.656587" lon="5.561865">
        <ele>180.074761</ele>
        <time>2026-08-10T19:59:26.992Z</time>
      </trkpt>
      <trkpt lat="50.656736" lon="5.561979">
        <ele>179.901817</ele>
        <time>2026-08-10T19:59:34.068Z</time>
      </trkpt>
      <trkpt lat="50.657020" lon="5.561552">
        <ele>179.476639</ele>
        <time>2026-08-10T19:59:53.237Z</time>
      </trkpt>
      <trkpt lat="50.657198" lon="5.561301">
        <ele>179.217904</ele>
        <time>2026-08-10T20:00:04.558Z</time>
      </trkpt>
      <trkpt lat="50.657237" lon="5.561246">
        <ele>179.161212</ele>
        <time>2026-08-10T20:00:06.986Z</time>
      </trkpt>
      <trkpt lat="50.657088" lon="5.560994">
        <ele>178.924475</ele>
        <time>2026-08-10T20:00:15.545Z</time>
      </trkpt>
      <trkpt lat="50.656923" lon="5.560714">
        <ele>178.661843</ele>
        <time>2026-08-10T20:00:24.978Z</time>
      </trkpt>
      <trkpt lat="50.656733" lon="5.560668">
        <ele>178.453533</ele>
        <time>2026-08-10T20:00:32.365Z</time>
      </trkpt>
      <trkpt lat="50.656203" lon="5.560429">
        <ele>177.308746</ele>
        <time>2026-08-10T20:00:53.370Z</time>
      </trkpt>
      <trkpt lat="50.655696" lon="5.560137">
        <ele>175.554864</ele>
        <time>2026-08-10T20:01:14.386Z</time>
      </trkpt>
      <trkpt lat="50.655670" lon="5.560129">
        <ele>175.468784</ele>
        <time>2026-08-10T20:01:15.402Z</time>
      </trkpt>
      <trkpt lat="50.655375" lon="5.560021">
        <ele>174.484700</ele>
        <time>2026-08-10T20:01:27.164Z</time>
      </trkpt>
      <trkpt lat="50.655141" lon="5.560000">
        <ele>173.723088</ele>
        <time>2026-08-10T20:01:36.008Z</time>
      </trkpt>
      <trkpt lat="50.654722" lon="5.560058">
        <ele>172.356315</ele>
        <time>2026-08-10T20:01:51.628Z</time>
      </trkpt>
      <trkpt lat="50.654627" lon="5.559992">
        <ele>171.850064</ele>
        <time>2026-08-10T20:01:55.410Z</time>
      </trkpt>
      <trkpt lat="50.654539" lon="5.559853">
        <ele>171.188748</ele>
        <time>2026-08-10T20:01:59.962Z</time>
      </trkpt>
      <trkpt lat="50.654261" lon="5.559414">
        <ele>169.099855</ele>
        <time>2026-08-10T20:02:14.182Z</time>
      </trkpt>
      <trkpt lat="50.654144" lon="5.559302">
        <ele>168.373106</ele>
        <time>2026-08-10T20:02:19.106Z</time>
      </trkpt>
      <trkpt lat="50.654046" lon="5.559234">
        <ele>167.804586</ele>
        <time>2026-08-10T20:02:22.929Z</time>
      </trkpt>
      <trkpt lat="50.653853" lon="5.559211">
        <ele>166.776816</ele>
        <time>2026-08-10T20:02:29.807Z</time>
      </trkpt>
      <trkpt lat="50.653710" lon="5.559286">
        <ele>165.976591</ele>
        <time>2026-08-10T20:02:35.125Z</time>
      </trkpt>
      <trkpt lat="50.652683" lon="5.560412">
        <ele>160.005273</ele>
        <time>2026-08-10T20:03:20.947Z</time>
      </trkpt>
      <trkpt lat="50.652503" lon="5.560525">
        <ele>159.179373</ele>
        <time>2026-08-10T20:03:28.211Z</time>
      </trkpt>
      <trkpt lat="50.652536" lon="5.560706">
        <ele>158.670328</ele>
        <time>2026-08-10T20:03:32.681Z</time>
      </trkpt>
      <trkpt lat="50.652334" lon="5.560710">
        <ele>157.809122</ele>
        <time>2026-08-10T20:03:40.263Z</time>
      </trkpt>
      <trkpt lat="50.652278" lon="5.560976">
        <ele>157.051556</ele>
        <time>2026-08-10T20:03:46.917Z</time>
      </trkpt>
      <trkpt lat="50.652178" lon="5.561148">
        <ele>156.420790</ele>
        <time>2026-08-10T20:03:52.474Z</time>
      </trkpt>
      <trkpt lat="50.652115" lon="5.561196">
        <ele>156.122522</ele>
        <time>2026-08-10T20:03:55.088Z</time>
      </trkpt>
      <trkpt lat="50.652008" lon="5.561195">
        <ele>155.666367</ele>
        <time>2026-08-10T20:03:59.071Z</time>
      </trkpt>
      <trkpt lat="50.651944" lon="5.561194">
        <ele>155.393518</ele>
        <time>2026-08-10T20:04:01.463Z</time>
      </trkpt>
      <trkpt lat="50.651748" lon="5.560459">
        <ele>154.008253</ele>
        <time>2026-08-10T20:04:23.837Z</time>
      </trkpt>
      <trkpt lat="50.651560" lon="5.560441">
        <ele>153.543440</ele>
        <time>2026-08-10T20:04:32.131Z</time>
      </trkpt>
      <trkpt lat="50.651434" lon="5.560635">
        <ele>153.108887</ele>
        <time>2026-08-10T20:04:38.837Z</time>
      </trkpt>
      <trkpt lat="50.651320" lon="5.560880">
        <ele>152.633375</ele>
        <time>2026-08-10T20:04:46.301Z</time>
      </trkpt>
      <trkpt lat="50.651227" lon="5.561161">
        <ele>152.137391</ele>
        <time>2026-08-10T20:04:54.268Z</time>
      </trkpt>
      <trkpt lat="50.651227" lon="5.561161">
        <ele>152.137391</ele>
        <time>2026-08-10T20:04:54.318Z</time>
      </trkpt>
      <trkpt lat="50.651262" lon="5.561206">
        <ele>152.025952</ele>
        <time>2026-08-10T20:04:56.171Z</time>
      </trkpt>
      <trkpt lat="50.651356" lon="5.561278">
        <ele>151.768063</ele>
        <time>2026-08-10T20:05:00.370Z</time>
      </trkpt>
      <trkpt lat="50.651391" lon="5.561355">
        <ele>151.619817</ele>
        <time>2026-08-10T20:05:03.277Z</time>
      </trkpt>
      <trkpt lat="50.651445" lon="5.561927">
        <ele>150.714931</ele>
        <time>2026-08-10T20:05:20.596Z</time>
      </trkpt>
      <trkpt lat="50.651539" lon="5.562169">
        <ele>150.162644</ele>
        <time>2026-08-10T20:05:28.889Z</time>
      </trkpt>
      <trkpt lat="50.651909" lon="5.562972">
        <ele>148.138642</ele>
        <time>2026-08-10T20:05:57.684Z</time>
      </trkpt>
      <trkpt lat="50.651686" lon="5.563016">
        <ele>147.415907</ele>
        <time>2026-08-10T20:06:06.295Z</time>
      </trkpt>
      <trkpt lat="50.651625" lon="5.563103">
        <ele>147.151425</ele>
        <time>2026-08-10T20:06:09.408Z</time>
      </trkpt>
      <trkpt lat="50.651565" lon="5.563431">
        <ele>146.455358</ele>
        <time>2026-08-10T20:06:17.538Z</time>
      </trkpt>
      <trkpt lat="50.651621" lon="5.563914">
        <ele>145.454195</ele>
        <time>2026-08-10T20:06:29.040Z</time>
      </trkpt>
      <trkpt lat="50.651574" lon="5.563951">
        <ele>145.285266</ele>
        <time>2026-08-10T20:06:30.924Z</time>
      </trkpt>
      <trkpt lat="50.651644" lon="5.564293">
        <ele>144.495334</ele>
        <time>2026-08-10T20:06:39.140Z</time>
      </trkpt>
      <trkpt lat="50.651621" lon="5.564611">
        <ele>143.714595</ele>
        <time>2026-08-10T20:06:46.435Z</time>
      </trkpt>
      <trkpt lat="50.651602" lon="5.564620">
        <ele>143.638270</ele>
        <time>2026-08-10T20:06:47.258Z</time>
      </trkpt>
      <trkpt lat="50.651505" lon="5.564674">
        <ele>143.242514</ele>
        <time>2026-08-10T20:06:51.708Z</time>
      </trkpt>
      <trkpt lat="50.651502" lon="5.564743">
        <ele>143.073804</ele>
        <time>2026-08-10T20:06:53.330Z</time>
      </trkpt>
      <trkpt lat="50.651348" lon="5.565191">
        <ele>141.830698</ele>
        <time>2026-08-10T20:07:05.411Z</time>
      </trkpt>
      <trkpt lat="50.651367" lon="5.565614">
        <ele>140.796267</ele>
        <time>2026-08-10T20:07:15.590Z</time>
      </trkpt>
      <trkpt lat="50.651498" lon="5.566199">
        <ele>139.282862</ele>
        <time>2026-08-10T20:07:30.463Z</time>
      </trkpt>
      <trkpt lat="50.651681" lon="5.566532">
        <ele>138.207905</ele>
        <time>2026-08-10T20:07:41.194Z</time>
      </trkpt>
      <trkpt lat="50.651820" lon="5.566608">
        <ele>137.670188</ele>
        <time>2026-08-10T20:07:46.834Z</time>
      </trkpt>
      <trkpt lat="50.653167" lon="5.566906">
        <ele>132.962430</ele>
        <time>2026-08-10T20:08:38.912Z</time>
      </trkpt>
      <trkpt lat="50.653498" lon="5.566854">
        <ele>131.811134</ele>
        <time>2026-08-10T20:08:51.239Z</time>
      </trkpt>
      <trkpt lat="50.653355" lon="5.567344">
        <ele>130.393360</ele>
        <time>2026-08-10T20:09:03.715Z</time>
      </trkpt>
      <trkpt lat="50.653654" lon="5.567549">
        <ele>129.018288</ele>
        <time>2026-08-10T20:09:17.488Z</time>
      </trkpt>
      <trkpt lat="50.653712" lon="5.567589">
        <ele>128.751301</ele>
        <time>2026-08-10T20:09:20.148Z</time>
      </trkpt>
      <trkpt lat="50.653171" lon="5.569100">
        <ele>124.113550</ele>
        <time>2026-08-10T20:10:00.412Z</time>
      </trkpt>
      <trkpt lat="50.653409" lon="5.569361">
        <ele>125.376006</ele>
        <time>2026-08-10T20:10:14.627Z</time>
      </trkpt>
      <trkpt lat="50.653472" lon="5.569543">
        <ele>125.948574</ele>
        <time>2026-08-10T20:10:21.358Z</time>
      </trkpt>
      <trkpt lat="50.653565" lon="5.569697">
        <ele>126.535832</ele>
        <time>2026-08-10T20:10:28.531Z</time>
      </trkpt>
      <trkpt lat="50.653667" lon="5.569928">
        <ele>127.313125</ele>
        <time>2026-08-10T20:10:38.577Z</time>
      </trkpt>
      <trkpt lat="50.653712" lon="5.570031">
        <ele>127.658518</ele>
        <time>2026-08-10T20:10:43.204Z</time>
      </trkpt>
      <trkpt lat="50.653811" lon="5.570164">
        <ele>128.224883</ele>
        <time>2026-08-10T20:10:51.138Z</time>
      </trkpt>
      <trkpt lat="50.653754" lon="5.570537">
        <ele>129.284311</ele>
        <time>2026-08-10T20:11:06.696Z</time>
      </trkpt>
      <trkpt lat="50.653935" lon="5.570279">
        <ele>130.346811</ele>
        <time>2026-08-10T20:11:20.670Z</time>
      </trkpt>
      <trkpt lat="50.653974" lon="5.570143">
        <ele>130.758961</ele>
        <time>2026-08-10T20:11:26.351Z</time>
      </trkpt>
      <trkpt lat="50.654119" lon="5.569792">
        <ele>131.915728</ele>
        <time>2026-08-10T20:11:45.529Z</time>
      </trkpt>
      <trkpt lat="50.654157" lon="5.569600">
        <ele>132.962757</ele>
        <time>2026-08-10T20:11:54.788Z</time>
      </trkpt>
      <trkpt lat="50.654200" lon="5.569386">
        <ele>134.162684</ele>
        <time>2026-08-10T20:12:04.993Z</time>
      </trkpt>
      <trkpt lat="50.654282" lon="5.569897">
        <ele>136.980165</ele>
        <time>2026-08-10T20:12:25.661Z</time>
      </trkpt>
      <trkpt lat="50.654282" lon="5.569911">
        <ele>137.054996</ele>
        <time>2026-08-10T20:12:26.237Z</time>
      </trkpt>
      <trkpt lat="50.654272" lon="5.570118">
        <ele>138.164639</ele>
        <time>2026-08-10T20:12:34.442Z</time>
      </trkpt>
      <trkpt lat="50.654200" lon="5.570509">
        <ele>140.340944</ele>
        <time>2026-08-10T20:12:50.031Z</time>
      </trkpt>
      <trkpt lat="50.654226" lon="5.570757">
        <ele>141.684533</ele>
        <time>2026-08-10T20:12:59.113Z</time>
      </trkpt>
      <trkpt lat="50.654219" lon="5.571174">
        <ele>143.914223</ele>
        <time>2026-08-10T20:13:13.461Z</time>
      </trkpt>
      <trkpt lat="50.654221" lon="5.571417">
        <ele>145.213194</ele>
        <time>2026-08-10T20:13:23.762Z</time>
      </trkpt>
      <trkpt lat="50.654181" lon="5.571658">
        <ele>146.544776</ele>
        <time>2026-08-10T20:13:34.753Z</time>
      </trkpt>
      <trkpt lat="50.654130" lon="5.571714">
        <ele>147.068675</ele>
        <time>2026-08-10T20:13:39.261Z</time>
      </trkpt>
      <trkpt lat="50.653847" lon="5.571784">
        <ele>149.451138</ele>
        <time>2026-08-10T20:14:00.870Z</time>
      </trkpt>
      <trkpt lat="50.653678" lon="5.571914">
        <ele>151.014579</ele>
        <time>2026-08-10T20:14:15.531Z</time>
      </trkpt>
      <trkpt lat="50.653636" lon="5.572030">
        <ele>151.718796</ele>
        <time>2026-08-10T20:14:21.873Z</time>
      </trkpt>
      <trkpt lat="50.653650" lon="5.572197">
        <ele>152.606842</ele>
        <time>2026-08-10T20:14:29.646Z</time>
      </trkpt>
      <trkpt lat="50.653730" lon="5.572539">
        <ele>154.528579</ele>
        <time>2026-08-10T20:14:46.098Z</time>
      </trkpt>
      <trkpt lat="50.653932" lon="5.573337">
        <ele>159.058333</ele>
        <time>2026-08-10T20:15:17.084Z</time>
      </trkpt>
      <trkpt lat="50.654248" lon="5.573292">
        <ele>161.696554</ele>
        <time>2026-08-10T20:15:36.604Z</time>
      </trkpt>
      <trkpt lat="50.654555" lon="5.573326">
        <ele>162.885677</ele>
        <time>2026-08-10T20:15:54.975Z</time>
      </trkpt>
      <trkpt lat="50.654798" lon="5.573154">
        <ele>163.715150</ele>
        <time>2026-08-10T20:16:09.146Z</time>
      </trkpt>
      <trkpt lat="50.654892" lon="5.573052">
        <ele>164.070474</ele>
        <time>2026-08-10T20:16:14.874Z</time>
      </trkpt>
      <trkpt lat="50.655128" lon="5.572695">
        <ele>165.088811</ele>
        <time>2026-08-10T20:16:30.268Z</time>
      </trkpt>
      <trkpt lat="50.655505" lon="5.572093">
        <ele>166.759500</ele>
        <time>2026-08-10T20:16:53.575Z</time>
      </trkpt>
      <trkpt lat="50.655794" lon="5.572555">
        <ele>167.082484</ele>
        <time>2026-08-10T20:17:10.107Z</time>
      </trkpt>
      <trkpt lat="50.655957" lon="5.572657">
        <ele>166.229435</ele>
        <time>2026-08-10T20:17:16.838Z</time>
      </trkpt>
      <trkpt lat="50.656144" lon="5.572692">
        <ele>165.313374</ele>
        <time>2026-08-10T20:17:23.909Z</time>
      </trkpt>
      <trkpt lat="50.656776" lon="5.572484">
        <ele>162.172743</ele>
        <time>2026-08-10T20:17:47.169Z</time>
      </trkpt>
      <trkpt lat="50.656929" lon="5.572514">
        <ele>161.422731</ele>
        <time>2026-08-10T20:17:52.619Z</time>
      </trkpt>
      <trkpt lat="50.657056" lon="5.572645">
        <ele>160.684560</ele>
        <time>2026-08-10T20:17:57.915Z</time>
      </trkpt>
      <trkpt lat="50.657428" lon="5.573161">
        <ele>158.224442</ele>
        <time>2026-08-10T20:18:15.306Z</time>
      </trkpt>
      <trkpt lat="50.657443" lon="5.573218">
        <ele>158.019201</ele>
        <time>2026-08-10T20:18:16.683Z</time>
      </trkpt>
      <trkpt lat="50.657423" lon="5.573354">
        <ele>157.554912</ele>
        <time>2026-08-10T20:18:19.825Z</time>
      </trkpt>
      <trkpt lat="50.657828" lon="5.573647">
        <ele>155.217585</ele>
        <time>2026-08-10T20:18:38.469Z</time>
      </trkpt>
      <trkpt lat="50.657937" lon="5.573700">
        <ele>154.619247</ele>
        <time>2026-08-10T20:18:43.196Z</time>
      </trkpt>
      <trkpt lat="50.658019" lon="5.573741">
        <ele>154.168002</ele>
        <time>2026-08-10T20:18:46.773Z</time>
      </trkpt>
      <trkpt lat="50.658562" lon="5.573815">
        <ele>151.308938</ele>
        <time>2026-08-10T20:19:09.681Z</time>
      </trkpt>
      <trkpt lat="50.658779" lon="5.573853">
        <ele>150.163614</ele>
        <time>2026-08-10T20:19:19.369Z</time>
      </trkpt>
      <trkpt lat="50.659172" lon="5.573901">
        <ele>150.322225</ele>
        <time>2026-08-10T20:19:37.790Z</time>
      </trkpt>
      <trkpt lat="50.659282" lon="5.573965">
        <ele>150.695104</ele>
        <time>2026-08-10T20:19:43.428Z</time>
      </trkpt>
      <trkpt lat="50.659381" lon="5.574071">
        <ele>151.075639</ele>
        <time>2026-08-10T20:19:49.401Z</time>
      </trkpt>
      <trkpt lat="50.659391" lon="5.573556">
        <ele>152.114434</ele>
        <time>2026-08-10T20:20:03.852Z</time>
      </trkpt>
      <trkpt lat="50.659436" lon="5.573082">
        <ele>153.080737</ele>
        <time>2026-08-10T20:20:18.033Z</time>
      </trkpt>
      <trkpt lat="50.659522" lon="5.572563">
        <ele>154.162264</ele>
        <time>2026-08-10T20:20:36.223Z</time>
      </trkpt>
      <trkpt lat="50.659594" lon="5.572131">
        <ele>155.062829</ele>
        <time>2026-08-10T20:20:53.167Z</time>
      </trkpt>
      <trkpt lat="50.659594" lon="5.572131">
        <ele>155.062829</ele>
        <time>2026-08-10T20:20:53.181Z</time>
      </trkpt>
      <trkpt lat="50.659439" lon="5.571972">
        <ele>156.211640</ele>
        <time>2026-08-10T20:21:00.796Z</time>
      </trkpt>
      <trkpt lat="50.659501" lon="5.571627">
        <ele>157.838415</ele>
        <time>2026-08-10T20:21:10.158Z</time>
      </trkpt>
      <trkpt lat="50.659383" lon="5.571138">
        <ele>160.212062</ele>
        <time>2026-08-10T20:21:23.815Z</time>
      </trkpt>
      <trkpt lat="50.659149" lon="5.571111">
        <ele>161.891090</ele>
        <time>2026-08-10T20:21:33.472Z</time>
      </trkpt>
      <trkpt lat="50.658962" lon="5.571017">
        <ele>163.295604</ele>
        <time>2026-08-10T20:21:41.548Z</time>
      </trkpt>
      <trkpt lat="50.658762" lon="5.570964">
        <ele>164.746903</ele>
        <time>2026-08-10T20:21:49.891Z</time>
      </trkpt>
      <trkpt lat="50.658348" lon="5.571051">
        <ele>167.735750</ele>
        <time>2026-08-10T20:22:07.066Z</time>
      </trkpt>
      <trkpt lat="50.658165" lon="5.571038">
        <ele>168.526822</ele>
        <time>2026-08-10T20:22:14.594Z</time>
      </trkpt>
      <trkpt lat="50.658061" lon="5.570939">
        <ele>168.931632</ele>
        <time>2026-08-10T20:22:19.586Z</time>
      </trkpt>
      <trkpt lat="50.657896" lon="5.570600">
        <ele>169.834580</ele>
        <time>2026-08-10T20:22:30.729Z</time>
      </trkpt>
      <trkpt lat="50.657846" lon="5.570651">
        <ele>170.033011</ele>
        <time>2026-08-10T20:22:33.498Z</time>
      </trkpt>
      <trkpt lat="50.657676" lon="5.570745">
        <ele>170.633352</ele>
        <time>2026-08-10T20:22:41.774Z</time>
      </trkpt>
      <trkpt lat="50.657480" lon="5.570788">
        <ele>171.292829</ele>
        <time>2026-08-10T20:22:50.796Z</time>
      </trkpt>
      <trkpt lat="50.656895" lon="5.570553">
        <ele>173.304626</ele>
        <time>2026-08-10T20:23:17.937Z</time>
      </trkpt>
      <trkpt lat="50.656849" lon="5.570534">
        <ele>173.463094</ele>
        <time>2026-08-10T20:23:20.057Z</time>
      </trkpt>
      <trkpt lat="50.656801" lon="5.570433">
        <ele>173.729783</ele>
        <time>2026-08-10T20:23:23.611Z</time>
      </trkpt>
      <trkpt lat="50.657349" lon="5.569682">
        <ele>174.067892</ele>
        <time>2026-08-10T20:23:56.411Z</time>
      </trkpt>
      <trkpt lat="50.657607" lon="5.569316">
        <ele>174.067892</ele>
        <time>2026-08-10T20:24:11.960Z</time>
      </trkpt>
      <trkpt lat="50.657719" lon="5.569167">
        <ele>174.067892</ele>
        <time>2026-08-10T20:24:18.467Z</time>
      </trkpt>
    </trkseg>
  </trk>
</gpx>